createdAt,value
2023-02-13T00:00:24.946Z,25.50
2023-02-13T00:01:27.570Z,25.38
2023-02-13T00:02:29.787Z,25.15
2023-02-13T00:03:32.042Z,24.17
2023-02-13T00:04:34.790Z,25.98
2023-02-13T00:05:36.966Z,24.80
2023-02-13T00:06:39.189Z,26.25
2023-02-13T00:07:41.527Z,24.38
2023-02-13T00:08:43.732Z,26.13
2023-02-13T00:09:45.904Z,24.80
2023-02-13T00:10:48.713Z,25.42
2023-02-13T00:11:50.984Z,25.45
2023-02-13T00:12:53.607Z,26.08
2023-02-13T00:13:55.938Z,26.08
2023-02-13T00:14:59.083Z,27.15
2023-02-13T00:16:03.614Z,25.50
2023-02-13T00:17:07.200Z,26.95
2023-02-13T00:18:09.525Z,26.05
2023-02-13T00:19:11.775Z,26.50
2023-02-13T00:20:14.274Z,26.70
2023-02-13T00:21:16.446Z,27.58
2023-02-13T00:22:18.702Z,25.83
2023-02-13T00:23:21.064Z,26.80
2023-02-13T00:24:23.342Z,27.40
2023-02-13T00:25:25.530Z,27.10
2023-02-13T00:26:27.771Z,27.30
2023-02-13T00:27:29.997Z,28.00
2023-02-13T00:28:32.271Z,27.85
2023-02-13T00:29:37.582Z,27.88
2023-02-13T00:30:39.944Z,28.42
2023-02-13T00:31:42.354Z,30.30
2023-02-13T00:32:44.678Z,28.30
2023-02-13T00:33:47.351Z,28.45
2023-02-13T00:34:49.613Z,29.35
2023-02-13T00:35:51.830Z,28.70
2023-02-13T00:36:54.061Z,28.88
2023-02-13T00:37:56.520Z,28.13
2023-02-13T00:38:59.943Z,29.00
2023-02-13T00:40:02.457Z,28.40
2023-02-13T00:41:05.421Z,27.95
2023-02-13T00:42:07.692Z,27.25
2023-02-13T00:43:09.850Z,28.48
2023-02-13T00:44:12.218Z,28.67
2023-02-13T00:45:14.456Z,27.48
2023-02-13T00:46:17.525Z,29.60
2023-02-13T00:47:20.525Z,28.45
2023-02-13T00:48:22.683Z,27.10
2023-02-13T00:49:24.980Z,28.73
2023-02-13T00:50:27.184Z,28.77
2023-02-13T00:51:29.402Z,30.35
2023-02-13T00:52:33.781Z,29.52
2023-02-13T00:53:36.884Z,28.30
2023-02-13T00:54:39.072Z,29.65
2023-02-13T00:55:42.676Z,29.77
2023-02-13T00:56:45.632Z,30.65
2023-02-13T00:57:48.653Z,29.80
2023-02-13T00:58:50.880Z,27.63
2023-02-13T00:59:53.197Z,29.55
2023-02-13T01:00:55.965Z,28.40
2023-02-13T01:01:58.446Z,28.25
2023-02-13T01:03:00.718Z,28.25
2023-02-13T01:04:03.016Z,29.50
2023-02-13T01:05:05.690Z,29.20
2023-02-13T01:06:08.043Z,29.05
2023-02-13T01:07:10.259Z,28.63
2023-02-13T01:08:13.355Z,30.13
2023-02-13T01:09:15.635Z,27.40
2023-02-13T01:10:17.978Z,29.23
2023-02-13T01:11:20.306Z,30.27
2023-02-13T01:12:22.490Z,28.60
2023-02-13T01:13:25.148Z,29.60
2023-02-13T01:14:29.290Z,29.45
2023-02-13T01:15:32.420Z,30.10
2023-02-13T01:16:34.621Z,29.92
2023-02-13T01:17:39.566Z,31.23
2023-02-13T01:18:41.785Z,31.27
2023-02-13T01:19:44.056Z,31.42
2023-02-13T01:21:00.003Z,30.25
2023-02-13T01:22:02.330Z,30.67
2023-02-13T01:23:05.703Z,33.25
2023-02-13T01:24:08.062Z,31.65
2023-02-13T01:25:11.704Z,34.28
2023-02-13T01:26:18.779Z,30.42
2023-02-13T01:27:21.088Z,33.05
2023-02-13T01:28:23.322Z,32.55
2023-02-13T01:29:25.632Z,33.40
2023-02-13T01:30:27.846Z,32.72
2023-02-13T01:31:31.180Z,34.05
2023-02-13T01:32:33.433Z,33.38
2023-02-13T01:33:36.083Z,33.15
2023-02-13T01:34:38.300Z,31.10
2023-02-13T01:35:40.564Z,33.70
2023-02-13T01:36:45.305Z,33.78
2023-02-13T01:37:47.578Z,35.60
2023-02-13T01:38:54.238Z,35.80
2023-02-13T01:39:56.693Z,36.47
2023-02-13T01:40:59.232Z,34.05
2023-02-13T01:42:01.921Z,35.28
2023-02-13T01:43:08.959Z,36.05
2023-02-13T01:44:48.629Z,39.05
2023-02-13T01:45:56.242Z,36.88
2023-02-13T01:46:58.480Z,37.53
2023-02-13T01:48:05.955Z,38.28
2023-02-13T01:49:15.068Z,39.40
2023-02-13T01:50:33.828Z,36.88
2023-02-13T01:51:36.824Z,37.90
2023-02-13T01:53:04.150Z,40.83
2023-02-13T01:54:12.500Z,40.30
2023-02-13T01:55:16.020Z,41.67
2023-02-13T01:56:25.211Z,41.65
2023-02-13T01:57:32.778Z,42.88
2023-02-13T01:58:39.013Z,40.50
2023-02-13T02:02:07.986Z,42.90
2023-02-13T02:03:19.075Z,39.67
2023-02-13T02:04:33.598Z,44.15
2023-02-13T02:05:39.335Z,41.25
2023-02-13T02:06:46.613Z,41.78
2023-02-13T02:07:59.787Z,36.63
2023-02-13T02:09:10.385Z,40.03
2023-02-13T02:10:17.011Z,44.13
2023-02-13T02:12:04.051Z,43.72
2023-02-13T02:13:20.562Z,44.22
2023-02-13T02:14:22.989Z,44.50
2023-02-13T02:15:25.360Z,42.53
2023-02-13T02:16:29.226Z,47.90
2023-02-13T02:17:31.610Z,40.80
2023-02-13T02:18:34.707Z,43.70
2023-02-13T02:19:49.257Z,38.25
2023-02-13T02:21:29.448Z,39.58
2023-02-13T02:23:04.064Z,41.97
2023-02-13T02:24:26.222Z,40.50
2023-02-13T02:25:31.775Z,38.05
2023-02-13T02:26:57.562Z,39.75
2023-02-13T02:28:17.964Z,41.92
2023-02-13T02:29:53.071Z,43.05
2023-02-13T02:31:26.291Z,38.53
2023-02-13T02:33:00.703Z,35.30
2023-02-13T02:34:38.955Z,34.13
2023-02-13T02:36:01.796Z,36.92
2023-02-13T02:37:20.933Z,45.08
2023-02-13T02:38:44.718Z,37.92
2023-02-13T02:40:09.893Z,46.47
2023-02-13T02:41:48.280Z,39.08
2023-02-13T02:42:59.492Z,39.17
2023-02-13T02:44:27.608Z,42.35
2023-02-13T02:46:07.141Z,35.80
2023-02-13T02:47:45.241Z,39.50
2023-02-13T02:49:23.543Z,35.65
2023-02-13T02:50:40.164Z,40.40
2023-02-13T02:52:13.648Z,41.38
2023-02-13T02:54:48.002Z,36.63
2023-02-13T02:56:18.839Z,40.00
2023-02-13T02:57:49.842Z,39.75
2023-02-13T02:59:39.056Z,37.70
2023-02-13T03:01:01.385Z,35.42
2023-02-13T03:02:23.400Z,40.05
2023-02-13T03:03:45.618Z,39.67
2023-02-13T03:05:11.567Z,37.97
2023-02-13T03:06:29.919Z,41.00
2023-02-13T03:07:32.835Z,35.55
2023-02-13T03:08:53.917Z,40.70
2023-02-13T03:10:18.329Z,31.70
2023-02-13T03:11:40.332Z,25.60
2023-02-13T03:13:07.385Z,32.88
2023-02-13T03:14:13.250Z,38.58
2023-02-13T03:15:15.561Z,37.63
2023-02-13T03:16:41.184Z,34.80
2023-02-13T03:18:02.301Z,40.78
2023-02-13T03:19:23.379Z,42.08
2023-02-13T03:20:58.459Z,41.63
2023-02-13T03:22:18.851Z,43.05
2023-02-13T03:23:33.552Z,44.80
2023-02-13T03:25:03.207Z,41.03
2023-02-13T03:26:17.360Z,40.10
2023-02-13T03:27:53.144Z,42.58
2023-02-13T03:29:25.148Z,46.53
2023-02-13T03:30:39.085Z,39.58
2023-02-13T03:32:01.430Z,39.38
2023-02-13T03:33:21.630Z,43.35
2023-02-13T03:34:47.875Z,45.97
2023-02-13T03:36:28.532Z,48.50
2023-02-13T03:37:55.368Z,42.83
2023-02-13T03:39:07.729Z,44.65
2023-02-13T03:40:17.192Z,48.95
2023-02-13T03:41:40.051Z,47.22
2023-02-13T03:42:58.421Z,40.47
2023-02-13T03:44:14.348Z,51.08
2023-02-13T03:45:41.485Z,50.35
2023-02-13T03:46:49.705Z,48.40
2023-02-13T03:47:56.890Z,51.25
2023-02-13T03:49:21.117Z,43.85
2023-02-13T03:50:25.736Z,45.05
2023-02-13T03:51:39.812Z,43.53
2023-02-13T03:52:56.680Z,46.92
2023-02-13T03:54:05.351Z,45.92
2023-02-13T03:55:28.832Z,38.53
2023-02-13T03:56:52.989Z,40.60
2023-02-13T03:58:20.877Z,50.47
2023-02-13T03:59:28.792Z,42.55
2023-02-13T04:00:38.369Z,47.00
2023-02-13T04:01:43.724Z,44.50
2023-02-13T04:03:25.519Z,49.00
2023-02-13T04:04:55.314Z,45.25
2023-02-13T04:06:06.115Z,50.45
2023-02-13T04:07:12.235Z,51.72
2023-02-13T04:08:14.486Z,43.90
2023-02-13T04:09:17.201Z,54.55
2023-02-13T04:10:20.104Z,55.78
2023-02-13T04:11:33.130Z,55.05
2023-02-13T04:13:15.919Z,47.15
2023-02-13T04:14:26.126Z,52.47
2023-02-13T04:15:34.790Z,49.22
2023-02-13T04:16:45.582Z,48.40
2023-02-13T04:17:56.623Z,53.08
2023-02-13T04:19:00.881Z,49.60
2023-02-13T04:20:03.777Z,50.13
2023-02-13T04:21:07.755Z,47.78
2023-02-13T04:22:12.363Z,54.70
2023-02-13T04:23:15.836Z,50.00
2023-02-13T04:24:18.035Z,53.33
2023-02-13T04:25:21.145Z,52.15
2023-02-13T04:26:23.671Z,55.33
2023-02-13T04:27:28.505Z,43.40
2023-02-13T04:28:30.834Z,45.78
2023-02-13T04:29:33.149Z,51.80
2023-02-13T04:30:35.438Z,48.85
2023-02-13T04:31:37.851Z,49.92
2023-02-13T04:32:40.158Z,48.30
2023-02-13T04:33:42.334Z,52.33
2023-02-13T04:34:44.554Z,51.75
2023-02-13T04:35:46.795Z,49.90
2023-02-13T04:36:49.077Z,53.70
2023-02-13T04:37:51.319Z,53.97
2023-02-13T04:38:53.642Z,56.25
2023-02-13T04:39:55.825Z,59.00
2023-02-13T04:40:58.383Z,59.30
2023-02-13T04:42:00.971Z,64.70
2023-02-13T04:43:03.268Z,64.80
2023-02-13T04:44:05.735Z,73.28
2023-02-13T04:45:08.390Z,75.10
2023-02-13T04:46:10.752Z,68.15
2023-02-13T04:47:12.978Z,67.15
2023-02-13T04:48:15.254Z,61.85
2023-02-13T04:49:17.497Z,50.63
2023-02-13T04:50:20.487Z,52.58
2023-02-13T04:51:22.790Z,46.97
2023-02-13T04:52:25.028Z,58.70
2023-02-13T04:53:27.291Z,49.00
2023-02-13T04:54:29.485Z,53.60
2023-02-13T04:55:31.692Z,54.83
2023-02-13T04:56:34.078Z,45.67
2023-02-13T04:57:36.298Z,54.75
2023-02-13T04:58:38.572Z,58.17
2023-02-13T04:59:41.078Z,53.10
2023-02-13T05:00:43.308Z,53.85
2023-02-13T05:01:45.596Z,54.20
2023-02-13T05:02:47.881Z,49.83
2023-02-13T05:03:50.154Z,50.83
2023-02-13T05:04:52.385Z,51.78
2023-02-13T05:05:54.608Z,46.80
2023-02-13T05:06:56.830Z,52.40
2023-02-13T05:07:59.077Z,45.42
2023-02-13T05:09:01.279Z,49.17
2023-02-13T05:10:03.624Z,44.05
2023-02-13T05:11:06.325Z,51.70
2023-02-13T05:12:08.513Z,49.08
2023-02-13T05:13:10.960Z,46.25
2023-02-13T05:14:13.228Z,44.50
2023-02-13T05:15:15.562Z,46.42
2023-02-13T05:16:17.813Z,42.15
2023-02-13T05:17:20.121Z,43.10
2023-02-13T05:18:22.334Z,34.78
2023-02-13T05:19:24.512Z,35.60
2023-02-13T05:20:26.817Z,44.33
2023-02-13T05:21:47.512Z,43.08
2023-02-13T05:23:11.045Z,40.83
2023-02-13T05:24:13.247Z,42.63
2023-02-13T05:25:15.909Z,45.80
2023-02-13T05:26:18.162Z,46.30
2023-02-13T05:27:20.332Z,51.83
2023-02-13T05:28:40.956Z,51.78
2023-02-13T05:29:43.226Z,47.67
2023-02-13T05:30:45.469Z,50.58
2023-02-13T05:31:49.722Z,47.28
2023-02-13T05:32:52.270Z,47.45
2023-02-13T05:33:54.480Z,46.08
2023-02-13T05:34:56.682Z,42.67
2023-02-13T05:35:58.835Z,46.15
2023-02-13T05:37:01.143Z,46.05
2023-02-13T05:38:03.471Z,41.30
2023-02-13T05:39:06.274Z,41.03
2023-02-13T05:40:09.515Z,38.55
2023-02-13T05:41:13.495Z,45.80
2023-02-13T05:42:15.747Z,49.28
2023-02-13T05:43:19.165Z,51.15
2023-02-13T05:44:21.342Z,42.00
2023-02-13T05:45:23.716Z,44.47
2023-02-13T05:46:26.005Z,46.83
2023-02-13T05:47:28.219Z,39.00
2023-02-13T05:48:30.423Z,46.95
2023-02-13T05:49:32.636Z,41.85
2023-02-13T05:50:34.860Z,43.53
2023-02-13T05:51:37.128Z,40.58
2023-02-13T05:52:39.353Z,42.05
2023-02-13T05:53:41.523Z,44.40
2023-02-13T05:54:43.956Z,34.03
2023-02-13T05:55:46.516Z,36.47
2023-02-13T05:56:48.839Z,31.23
2023-02-13T05:57:57.391Z,31.55
2023-02-13T05:58:59.652Z,31.75
2023-02-13T06:00:02.244Z,28.23
2023-02-13T06:01:07.981Z,32.50
2023-02-13T06:02:10.355Z,31.70
2023-02-13T06:03:12.717Z,32.70
2023-02-13T06:04:15.041Z,27.77
2023-02-13T06:05:17.415Z,29.52
2023-02-13T06:06:20.526Z,28.33
2023-02-13T06:07:23.203Z,28.35
2023-02-13T06:08:26.504Z,30.17
2023-02-13T06:09:28.714Z,27.05
2023-02-13T06:10:30.899Z,30.60
2023-02-13T06:11:33.116Z,31.65
2023-02-13T06:12:35.558Z,30.90
2023-02-13T06:13:40.566Z,30.45
2023-02-13T06:14:42.812Z,32.88
2023-02-13T06:15:45.865Z,33.33
2023-02-13T06:16:48.099Z,33.05
2023-02-13T06:17:50.281Z,34.22
2023-02-13T06:18:52.509Z,37.72
2023-02-13T06:19:55.028Z,34.88
2023-02-13T06:20:57.510Z,34.25
2023-02-13T06:21:59.903Z,41.08
2023-02-13T06:23:02.088Z,38.88
2023-02-13T06:24:05.869Z,38.35
2023-02-13T06:25:08.041Z,39.28
2023-02-13T06:26:10.298Z,39.28
2023-02-13T06:27:12.469Z,43.38
2023-02-13T06:28:14.683Z,40.28
2023-02-13T06:29:16.977Z,35.20
2023-02-13T06:30:19.765Z,36.40
2023-02-13T06:31:22.091Z,40.85
2023-02-13T06:32:24.454Z,36.67
2023-02-13T06:33:26.850Z,38.53
2023-02-13T06:34:29.088Z,40.13
2023-02-13T06:35:31.318Z,44.30
2023-02-13T06:36:33.693Z,41.05
2023-02-13T06:37:35.927Z,43.13
2023-02-13T06:38:38.139Z,45.72
2023-02-13T06:39:40.469Z,44.60
2023-02-13T06:40:43.042Z,47.72
2023-02-13T06:41:45.248Z,48.08
2023-02-13T06:42:47.537Z,41.15
2023-02-13T06:43:49.765Z,41.53
2023-02-13T06:44:52.078Z,41.55
2023-02-13T06:45:54.306Z,44.95
2023-02-13T06:46:56.589Z,43.00
2023-02-13T06:47:58.831Z,46.83
2023-02-13T06:49:01.008Z,43.67
2023-02-13T06:50:03.249Z,47.42
2023-02-13T06:51:05.786Z,45.33
2023-02-13T06:52:08.010Z,45.30
2023-02-13T06:53:10.387Z,49.72
2023-02-13T06:54:12.567Z,50.22
2023-02-13T06:55:15.300Z,47.28
2023-02-13T06:56:17.625Z,48.15
2023-02-13T06:57:19.822Z,49.20
2023-02-13T06:58:23.560Z,51.92
2023-02-13T06:59:25.778Z,48.40
2023-02-13T07:00:28.401Z,46.45
2023-02-13T07:01:30.645Z,52.17
2023-02-13T07:02:33.256Z,53.95
2023-02-13T07:03:35.491Z,49.45
2023-02-13T07:04:37.778Z,54.22
2023-02-13T07:05:44.115Z,53.88
2023-02-13T07:06:46.320Z,47.70
2023-02-13T07:07:48.518Z,50.88
2023-02-13T07:08:55.156Z,46.67
2023-02-13T07:09:57.408Z,46.85
2023-02-13T07:10:59.855Z,43.65
2023-02-13T07:12:05.662Z,43.55
2023-02-13T07:13:09.363Z,51.28
2023-02-13T07:14:11.578Z,40.40
2023-02-13T07:15:13.816Z,47.38
2023-02-13T07:16:16.214Z,38.55
2023-02-13T07:17:18.459Z,42.88
2023-02-13T07:18:20.700Z,40.83
2023-02-13T07:19:22.954Z,42.15
2023-02-13T07:20:26.329Z,44.60
2023-02-13T07:21:28.547Z,47.03
2023-02-13T07:22:32.812Z,46.17
2023-02-13T07:23:35.032Z,46.60
2023-02-13T07:24:38.532Z,44.83
2023-02-13T07:25:40.693Z,48.35
2023-02-13T07:26:42.945Z,44.35
2023-02-13T07:27:45.378Z,42.10
2023-02-13T07:28:47.668Z,39.80
2023-02-13T07:29:50.042Z,38.97
2023-02-13T07:30:52.421Z,37.67
2023-02-13T07:31:58.683Z,39.85
2023-02-13T07:33:02.568Z,43.75
2023-02-13T07:34:04.798Z,44.88
2023-02-13T07:35:07.063Z,42.58
2023-02-13T07:36:09.377Z,41.90
2023-02-13T07:37:11.651Z,43.90
2023-02-13T07:38:13.925Z,42.33
2023-02-13T07:39:16.313Z,39.13
2023-02-13T07:40:18.554Z,37.65
2023-02-13T07:41:21.016Z,37.42
2023-02-13T07:42:23.477Z,39.72
2023-02-13T07:43:25.823Z,32.08
2023-02-13T07:44:28.052Z,36.53
2023-02-13T07:45:30.482Z,33.78
2023-02-13T07:46:33.220Z,36.40
2023-02-13T07:47:35.482Z,37.13
2023-02-13T07:48:37.699Z,33.58
2023-02-13T07:49:40.026Z,33.83
2023-02-13T07:50:42.259Z,32.50
2023-02-13T07:51:44.505Z,32.50
2023-02-13T07:52:53.801Z,33.10
2023-02-13T07:53:56.677Z,34.08
2023-02-13T07:55:00.109Z,32.97
2023-02-13T07:56:09.026Z,34.20
2023-02-13T07:57:11.224Z,32.72
2023-02-13T07:58:13.390Z,32.05
2023-02-13T07:59:15.745Z,34.30
2023-02-13T08:00:18.893Z,32.05
2023-02-13T08:01:21.172Z,29.10
2023-02-13T08:02:23.420Z,31.25
2023-02-13T08:03:25.615Z,27.77
2023-02-13T08:04:27.830Z,29.63
2023-02-13T08:05:32.187Z,29.13
2023-02-13T08:06:34.434Z,29.75
2023-02-13T08:07:37.018Z,26.13
2023-02-13T08:08:39.295Z,27.23
2023-02-13T08:10:00.454Z,26.02
2023-02-13T08:11:24.942Z,26.58
2023-02-13T08:12:27.204Z,24.75
2023-02-13T08:13:29.512Z,26.67
2023-02-13T08:14:31.800Z,24.02
2023-02-13T08:15:34.075Z,26.70
2023-02-13T08:16:36.427Z,25.85
2023-02-13T08:17:38.707Z,26.75
2023-02-13T08:18:40.924Z,26.05
2023-02-13T08:19:43.130Z,25.65
2023-02-13T08:20:45.344Z,23.38
2023-02-13T08:21:47.696Z,23.63
2023-02-13T08:22:50.064Z,24.30
2023-02-13T08:23:52.330Z,24.05
2023-02-13T08:24:54.564Z,23.65
2023-02-13T08:26:01.250Z,25.15
2023-02-13T08:27:03.847Z,23.20
2023-02-13T08:28:06.125Z,23.27
2023-02-13T08:29:08.477Z,23.45
2023-02-13T08:30:11.443Z,24.85
2023-02-13T08:31:13.782Z,23.35
2023-02-13T08:32:16.504Z,21.50
2023-02-13T08:33:18.822Z,21.75
2023-02-13T08:34:21.066Z,23.42
2023-02-13T08:35:26.882Z,22.90
2023-02-13T08:36:29.488Z,19.92
2023-02-13T08:37:31.761Z,21.75
2023-02-13T08:38:34.184Z,20.05
2023-02-13T08:39:36.366Z,20.90
2023-02-13T08:40:38.563Z,20.58
2023-02-13T08:41:40.999Z,21.65
2023-02-13T08:42:43.569Z,20.55
2023-02-13T08:43:45.839Z,20.63
2023-02-13T08:44:48.096Z,19.88
2023-02-13T08:45:50.432Z,20.75
2023-02-13T08:46:52.786Z,20.23
2023-02-13T08:47:58.886Z,21.23
2023-02-13T08:49:01.105Z,21.60
2023-02-13T08:50:04.188Z,19.95
2023-02-13T08:51:13.751Z,20.83
2023-02-13T08:52:15.962Z,21.38
2023-02-13T08:53:18.195Z,22.00
2023-02-13T08:54:20.493Z,19.80
2023-02-13T08:55:22.759Z,21.40
2023-02-13T08:56:25.060Z,21.13
2023-02-13T08:57:27.336Z,21.35
2023-02-13T08:58:29.686Z,19.70
2023-02-13T08:59:31.860Z,21.67
2023-02-13T09:00:34.080Z,21.58
2023-02-13T09:01:36.426Z,21.67
2023-02-13T09:02:38.946Z,19.70
2023-02-13T09:03:41.283Z,19.52
2023-02-13T09:04:43.508Z,19.88
2023-02-13T09:05:46.101Z,20.50
2023-02-13T09:06:48.381Z,18.92
2023-02-13T09:07:50.583Z,21.02
2023-02-13T09:08:53.140Z,20.23
2023-02-13T09:09:55.353Z,21.38
2023-02-13T09:11:01.216Z,19.55
2023-02-13T09:12:03.433Z,20.20
2023-02-13T09:13:05.962Z,18.50
2023-02-13T09:14:08.268Z,19.50
2023-02-13T09:15:10.799Z,19.55
2023-02-13T09:16:13.014Z,18.67
2023-02-13T09:17:18.320Z,19.27
2023-02-13T09:18:20.636Z,18.02
2023-02-13T09:19:22.883Z,18.13
2023-02-13T09:20:25.143Z,18.83
2023-02-13T09:21:27.349Z,17.80
2023-02-13T09:22:29.562Z,17.65
2023-02-13T09:23:34.103Z,17.77
2023-02-13T09:24:36.678Z,17.85
2023-02-13T09:25:39.092Z,17.90
2023-02-13T09:26:41.390Z,19.83
2023-02-13T09:27:43.673Z,17.00
2023-02-13T09:28:46.109Z,16.23
2023-02-13T09:29:48.999Z,16.80
2023-02-13T09:30:51.303Z,16.02
2023-02-13T09:31:53.741Z,16.70
2023-02-13T09:32:56.201Z,16.88
2023-02-13T09:33:58.392Z,15.80
2023-02-13T09:35:00.658Z,15.38
2023-02-13T09:36:13.719Z,14.90
2023-02-13T09:37:15.932Z,14.98
2023-02-13T09:38:18.552Z,15.77
2023-02-13T09:39:21.278Z,15.35
2023-02-13T09:40:35.360Z,15.60
2023-02-13T09:41:45.090Z,14.60
2023-02-13T09:42:49.663Z,15.68
2023-02-13T09:43:59.123Z,15.90
2023-02-13T09:45:04.964Z,15.48
2023-02-13T09:46:20.115Z,16.70
2023-02-13T09:47:42.582Z,16.88
2023-02-13T09:48:48.501Z,21.17
2023-02-13T09:49:54.495Z,18.52
2023-02-13T09:50:58.159Z,18.95
2023-02-13T09:52:01.515Z,18.40
2023-02-13T09:53:04.350Z,16.08
2023-02-13T09:54:08.000Z,15.07
2023-02-13T09:55:16.451Z,15.25
2023-02-13T09:56:33.707Z,14.80
2023-02-13T09:57:46.123Z,14.70
2023-02-13T10:00:00.147Z,14.15
2023-02-13T10:01:05.472Z,15.02
2023-02-13T10:02:37.052Z,14.30
2023-02-13T10:03:53.343Z,13.38
2023-02-13T10:05:30.657Z,15.18
2023-02-13T10:06:49.784Z,14.02
2023-02-13T10:08:21.998Z,14.90
2023-02-13T10:09:30.259Z,14.48
2023-02-13T10:10:51.487Z,15.32
2023-02-13T10:12:13.145Z,14.60
2023-02-13T10:13:47.961Z,14.68
2023-02-13T10:15:11.366Z,15.52
2023-02-13T10:16:23.943Z,14.57
2023-02-13T10:17:40.831Z,14.75
2023-02-13T10:19:08.963Z,14.90
2023-02-13T10:20:40.111Z,13.95
2023-02-13T10:21:53.463Z,14.60
2023-02-13T10:23:27.297Z,14.63
2023-02-13T10:24:49.759Z,14.82
2023-02-13T10:26:00.891Z,14.23
2023-02-13T10:27:19.155Z,14.10
2023-02-13T10:28:30.909Z,14.27
2023-02-13T10:30:05.203Z,13.50
2023-02-13T10:31:15.369Z,14.43
2023-02-13T10:32:22.297Z,13.55
2023-02-13T10:33:52.128Z,14.52
2023-02-13T10:34:58.845Z,14.27
2023-02-13T10:36:10.076Z,14.38
2023-02-13T10:37:18.644Z,14.10
2023-02-13T10:38:23.069Z,15.48
2023-02-13T10:39:30.554Z,15.20
2023-02-13T10:40:40.372Z,16.65
2023-02-13T10:41:57.925Z,15.00
2023-02-13T10:43:10.582Z,14.55
2023-02-13T10:44:28.271Z,14.95
2023-02-13T10:45:43.875Z,14.20
2023-02-13T10:47:08.615Z,14.50
2023-02-13T10:48:30.890Z,14.02
2023-02-13T10:49:51.443Z,14.20
2023-02-13T10:51:01.779Z,13.07
2023-02-13T10:52:30.519Z,14.73
2023-02-13T10:53:43.753Z,13.85
2023-02-13T10:55:03.343Z,14.27
2023-02-13T10:56:27.127Z,18.92
2023-02-13T10:57:58.494Z,14.52
2023-02-13T10:59:22.251Z,14.05
2023-02-13T11:00:31.496Z,13.35
2023-02-13T11:01:56.347Z,14.93
2023-02-13T11:02:59.762Z,14.48
2023-02-13T11:04:12.005Z,13.77
2023-02-13T11:05:22.125Z,13.55
2023-02-13T11:06:24.461Z,14.73
2023-02-13T11:07:28.739Z,14.52
2023-02-13T11:08:43.192Z,13.93
2023-02-13T11:09:49.403Z,13.85
2023-02-13T11:10:52.472Z,14.00
2023-02-13T11:11:54.932Z,14.85
2023-02-13T11:12:57.424Z,14.63
2023-02-13T11:14:20.050Z,14.77
2023-02-13T11:15:29.566Z,14.15
2023-02-13T11:16:40.514Z,13.68
2023-02-13T11:17:44.106Z,13.95
2023-02-13T11:18:50.634Z,13.65
2023-02-13T11:19:55.558Z,13.98
2023-02-13T11:21:08.781Z,14.88
2023-02-13T11:22:42.698Z,13.80
2023-02-13T11:23:53.186Z,14.13
2023-02-13T11:25:02.310Z,13.93
2023-02-13T11:26:10.170Z,13.88
2023-02-13T11:27:13.934Z,14.45
2023-02-13T11:28:20.901Z,13.55
2023-02-13T11:29:31.647Z,13.60
2023-02-13T11:30:38.442Z,13.52
2023-02-13T11:31:40.859Z,14.20
2023-02-13T11:32:57.816Z,14.20
2023-02-13T11:34:18.771Z,14.00
2023-02-13T11:35:30.615Z,13.77
2023-02-13T11:36:34.209Z,13.40
2023-02-13T11:37:36.472Z,14.02
2023-02-13T11:38:38.863Z,14.25
2023-02-13T11:39:42.615Z,14.48
2023-02-13T11:40:48.160Z,14.30
2023-02-13T11:41:53.417Z,14.05
2023-02-13T11:42:55.689Z,14.38
2023-02-13T11:44:02.391Z,13.85
2023-02-13T11:45:26.902Z,14.15
2023-02-13T11:46:31.307Z,14.32
2023-02-13T11:47:41.858Z,14.20
2023-02-13T11:48:55.890Z,13.88
2023-02-13T11:49:58.207Z,14.80
2023-02-13T11:51:00.810Z,14.40
2023-02-13T11:52:06.395Z,13.95
2023-02-13T11:53:20.604Z,15.20
2023-02-13T11:54:29.222Z,14.38
2023-02-13T11:55:35.459Z,15.27
2023-02-13T11:57:04.433Z,18.10
2023-02-13T11:58:16.190Z,14.68
2023-02-13T11:59:23.881Z,16.10
2023-02-13T12:00:32.327Z,15.35
2023-02-13T12:01:34.575Z,17.98
2023-02-13T12:02:49.879Z,15.93
2023-02-13T12:04:07.631Z,15.82
2023-02-13T12:05:24.381Z,16.40
2023-02-13T12:06:26.839Z,16.13
2023-02-13T12:07:32.241Z,15.07
2023-02-13T12:08:39.264Z,15.07
2023-02-13T12:09:43.160Z,15.40
2023-02-13T12:10:45.545Z,15.15
2023-02-13T12:11:51.401Z,20.55
2023-02-13T12:13:02.372Z,15.98
2023-02-13T12:14:05.083Z,16.30
2023-02-13T12:15:27.498Z,16.33
2023-02-13T12:16:40.065Z,13.82
2023-02-13T12:17:45.284Z,14.18
2023-02-13T12:18:52.782Z,13.48
2023-02-13T12:19:55.575Z,24.50
2023-02-13T12:21:03.233Z,15.43
2023-02-13T12:22:15.017Z,16.48
2023-02-13T12:23:41.413Z,14.23
2023-02-13T12:25:16.384Z,19.35
2023-02-13T12:26:28.736Z,19.42
2023-02-13T12:27:42.947Z,14.80
2023-02-13T12:29:12.873Z,15.45
2023-02-13T12:30:36.387Z,15.95
2023-02-13T12:31:49.841Z,15.68
2023-02-13T12:33:29.571Z,20.48
2023-02-13T12:34:43.711Z,15.23
2023-02-13T12:36:23.082Z,16.25
2023-02-13T12:37:45.030Z,14.52
2023-02-13T12:39:31.727Z,17.30
2023-02-13T12:40:54.042Z,14.82
2023-02-13T12:42:39.454Z,14.88
2023-02-13T12:44:00.203Z,14.30
2023-02-13T12:45:26.832Z,13.27
2023-02-13T12:46:42.583Z,13.85
2023-02-13T12:48:10.540Z,15.10
2023-02-13T12:49:44.807Z,14.40
2023-02-13T12:51:03.601Z,14.73
2023-02-13T12:52:22.930Z,13.88
2023-02-13T12:53:43.905Z,14.10
2023-02-13T12:55:20.967Z,13.93
2023-02-13T12:56:55.063Z,15.80
2023-02-13T12:58:36.215Z,13.30
2023-02-13T12:59:47.046Z,12.13
2023-02-13T13:01:17.590Z,13.95
2023-02-13T13:02:37.820Z,13.88
2023-02-13T13:04:17.340Z,13.35
2023-02-13T13:05:24.626Z,13.65
2023-02-13T13:06:54.260Z,12.93
2023-02-13T13:08:31.595Z,13.15
2023-02-13T13:09:45.237Z,12.35
2023-02-13T13:11:22.242Z,13.50
2023-02-13T13:12:46.891Z,12.80
2023-02-13T13:14:06.756Z,14.70
2023-02-13T13:15:56.861Z,15.30
2023-02-13T13:17:03.823Z,13.75
2023-02-13T13:18:24.470Z,13.82
2023-02-13T13:19:49.321Z,14.35
2023-02-13T13:21:19.234Z,15.07
2023-02-13T13:22:32.619Z,13.95
2023-02-13T13:23:51.920Z,13.40
2023-02-13T13:25:06.643Z,12.82
2023-02-13T13:26:34.999Z,12.95
2023-02-13T13:27:44.313Z,12.65
2023-02-13T13:28:51.647Z,12.60
2023-02-13T13:30:35.508Z,13.25
2023-02-13T13:31:38.955Z,13.68
2023-02-13T13:32:43.273Z,13.13
2023-02-13T13:33:47.942Z,12.85
2023-02-13T13:34:50.382Z,12.68
2023-02-13T13:36:04.457Z,13.02
2023-02-13T13:37:14.310Z,13.32
2023-02-13T13:38:51.756Z,13.43
2023-02-13T13:40:03.751Z,12.93
2023-02-13T13:41:15.596Z,13.18
2023-02-13T13:42:30.669Z,12.63
2023-02-13T13:44:15.144Z,12.63
2023-02-13T13:45:31.248Z,12.80
2023-02-13T13:46:53.626Z,12.73
2023-02-13T13:47:58.599Z,12.82
2023-02-13T13:49:15.801Z,12.98
2023-02-13T13:50:31.417Z,10.65
2023-02-13T13:51:33.884Z,9.40
2023-02-13T13:52:39.624Z,10.27
2023-02-13T13:54:10.723Z,10.48
2023-02-13T13:55:48.241Z,12.70
2023-02-13T13:56:53.155Z,10.52
2023-02-13T13:58:00.336Z,11.25
2023-02-13T13:59:02.552Z,10.40
2023-02-13T14:00:14.047Z,10.60
2023-02-13T14:01:26.101Z,9.90
2023-02-13T14:02:48.340Z,9.82
2023-02-13T14:04:04.222Z,10.63
2023-02-13T14:05:32.315Z,11.05
2023-02-13T14:06:43.196Z,11.57
2023-02-13T14:07:48.270Z,11.70
2023-02-13T14:08:59.836Z,12.00
2023-02-13T14:10:02.189Z,12.20
2023-02-13T14:11:04.508Z,11.60
2023-02-13T14:12:24.542Z,12.18
2023-02-13T14:13:38.920Z,12.07
2023-02-13T14:14:44.755Z,11.18
2023-02-13T14:15:52.263Z,12.30
2023-02-13T14:16:59.494Z,11.68
2023-02-13T14:18:14.989Z,10.50
2023-02-13T14:19:29.204Z,12.98
2023-02-13T14:20:36.211Z,12.70
2023-02-13T14:21:38.463Z,13.32
2023-02-13T14:22:41.278Z,12.50
2023-02-13T14:23:49.689Z,13.40
2023-02-13T14:24:55.634Z,12.93
2023-02-13T14:26:10.687Z,12.55
2023-02-13T14:27:25.278Z,12.43
2023-02-13T14:28:27.726Z,13.05
2023-02-13T14:29:32.940Z,13.07
2023-02-13T14:30:40.283Z,13.50
2023-02-13T14:31:52.400Z,12.55
2023-02-13T14:32:55.289Z,12.90
2023-02-13T14:34:04.019Z,12.68
2023-02-13T14:35:22.660Z,11.32
2023-02-13T14:36:33.054Z,11.13
2023-02-13T14:37:39.569Z,12.68
2023-02-13T14:38:42.162Z,12.50
2023-02-13T14:40:33.459Z,12.15
2023-02-13T14:41:43.485Z,11.85
2023-02-13T14:42:56.391Z,12.15
2023-02-13T14:43:58.920Z,12.70
2023-02-13T14:45:04.771Z,11.63
2023-02-13T14:46:24.657Z,12.30
2023-02-13T14:47:40.381Z,11.60
2023-02-13T14:48:57.361Z,11.90
2023-02-13T14:50:02.177Z,11.70
2023-02-13T14:51:13.044Z,11.65
2023-02-13T14:52:26.262Z,10.57
2023-02-13T14:53:40.267Z,11.23
2023-02-13T14:54:48.865Z,13.10
2023-02-13T14:55:58.555Z,11.77